createdAt,value
2022-10-29T00:01:01.117Z,101329.34
2022-10-29T00:03:28.199Z,101327.88
2022-10-29T00:06:04.267Z,101327.25
2022-10-29T00:08:34.676Z,101323.56
2022-10-29T00:11:23.108Z,101317.00
2022-10-29T00:13:57.061Z,101314.31
2022-10-29T00:16:34.227Z,101318.00
2022-10-29T00:19:01.625Z,101307.72
2022-10-29T00:21:28.806Z,101312.44
2022-10-29T00:23:58.214Z,101303.19
2022-10-29T00:26:27.826Z,101298.88
2022-10-29T00:28:57.827Z,101295.56
2022-10-29T00:31:25.948Z,101295.91
2022-10-29T00:33:55.606Z,101294.13
2022-10-29T00:36:26.883Z,101291.22
2022-10-29T00:38:54.187Z,101292.31
2022-10-29T00:41:27.050Z,101291.50
2022-10-29T00:44:22.881Z,101293.47
2022-10-29T00:46:57.046Z,101289.75
2022-10-29T00:49:25.228Z,101281.13
2022-10-29T00:51:55.995Z,101273.72
2022-10-29T00:54:23.584Z,101281.16
2022-10-29T00:56:57.299Z,101279.50
2022-10-29T00:59:25.436Z,101274.97
2022-10-29T01:01:57.450Z,101282.41
2022-10-29T01:04:27.998Z,101284.63
2022-10-29T01:06:57.790Z,101270.84
2022-10-29T01:09:26.431Z,101264.91
2022-10-29T01:12:02.160Z,101269.59
2022-10-29T01:15:08.058Z,101264.09
2022-10-29T01:18:17.515Z,101274.41
2022-10-29T01:21:16.806Z,101270.50
2022-10-29T01:24:23.419Z,101269.44
2022-10-29T01:27:33.259Z,101263.50
2022-10-29T01:30:29.488Z,101274.84
2022-10-29T01:33:23.675Z,101270.94
2022-10-29T01:36:20.251Z,101263.50
2022-10-29T01:39:02.299Z,101267.66
2022-10-29T01:41:34.777Z,101270.56
2022-10-29T01:44:07.646Z,101275.91
2022-10-29T01:46:56.128Z,101276.31
2022-10-29T01:49:50.609Z,101277.34
2022-10-29T01:52:22.113Z,101273.41
2022-10-29T01:54:49.558Z,101277.72
2022-10-29T01:57:25.742Z,101279.97
2022-10-29T01:59:56.107Z,101264.34
2022-10-29T02:02:31.645Z,101249.97
2022-10-29T02:05:22.473Z,101256.53
2022-10-29T02:08:39.291Z,101249.59
2022-10-29T02:11:15.979Z,101241.75
2022-10-29T02:13:53.996Z,101261.03
2022-10-29T02:16:22.931Z,101272.78
2022-10-29T02:18:50.327Z,101284.47
2022-10-29T02:21:18.979Z,101268.44
2022-10-29T02:23:46.745Z,101252.84
2022-10-29T02:26:14.333Z,101241.34
2022-10-29T02:28:41.451Z,101252.44
2022-10-29T02:31:09.854Z,101252.84
2022-10-29T02:33:36.973Z,101260.69
2022-10-29T02:36:04.677Z,101255.09
2022-10-29T02:38:31.788Z,101256.13
2022-10-29T02:40:58.896Z,101262.31
2022-10-29T02:43:26.090Z,101263.09
2022-10-29T02:46:20.867Z,101255.34
2022-10-29T02:48:48.949Z,101247.13
2022-10-29T02:51:17.681Z,101266.59
2022-10-29T02:53:45.227Z,101265.16
2022-10-29T02:56:12.744Z,101274.00
2022-10-29T02:58:44.120Z,101268.47
2022-10-29T03:01:11.353Z,101264.38
2022-10-29T03:03:38.585Z,101256.13
2022-10-29T03:06:14.163Z,101256.34
2022-10-29T03:08:43.881Z,101249.78
2022-10-29T03:11:13.717Z,101257.78
2022-10-29T03:13:40.868Z,101252.03
2022-10-29T03:16:08.268Z,101260.06
2022-10-29T03:18:35.596Z,101260.44
2022-10-29T03:21:02.867Z,101258.19
2022-10-29T03:23:30.051Z,101263.94
2022-10-29T03:25:57.827Z,101256.56
2022-10-29T03:28:27.945Z,101263.13
2022-10-29T03:30:55.226Z,101252.84
2022-10-29T03:33:22.719Z,101261.50
2022-10-29T03:35:49.878Z,101264.78
2022-10-29T03:38:19.474Z,101263.31
2022-10-29T03:40:46.554Z,101267.06
2022-10-29T03:43:16.209Z,101257.38
2022-10-29T03:45:45.723Z,101258.19
2022-10-29T03:48:12.851Z,101275.47
2022-10-29T03:50:39.943Z,101276.50
2022-10-29T03:53:07.061Z,101276.91
2022-10-29T03:55:37.037Z,101272.38
2022-10-29T03:58:04.081Z,101271.34
2022-10-29T04:00:33.463Z,101271.16
2022-10-29T04:03:01.402Z,101271.97
2022-10-29T04:05:28.816Z,101271.16
2022-10-29T04:07:55.878Z,101281.81
2022-10-29T04:10:25.949Z,101284.09
2022-10-29T04:12:53.615Z,101284.50
2022-10-29T04:15:21.063Z,101277.91
2022-10-29T04:17:51.590Z,101281.81
2022-10-29T04:20:43.050Z,101289.00
2022-10-29T04:28:52.133Z,101292.69
2022-10-29T04:31:19.484Z,101289.78
2022-10-29T04:33:46.673Z,101286.28
2022-10-29T04:36:13.842Z,101278.28
2022-10-29T04:38:41.225Z,101280.75
2022-10-29T04:41:08.458Z,101285.25
2022-10-29T04:43:35.687Z,101288.94
2022-10-29T04:46:02.942Z,101285.84
2022-10-29T04:48:30.381Z,101285.22
2022-10-29T04:50:57.465Z,101281.50
2022-10-29T04:53:24.690Z,101292.41
2022-10-29T04:55:51.794Z,101289.31
2022-10-29T04:58:21.403Z,101289.66
2022-10-29T05:00:48.783Z,101291.91
2022-10-29T05:03:18.492Z,101287.00
2022-10-29T05:05:51.009Z,101297.88
2022-10-29T05:08:20.331Z,101291.59
2022-10-29T05:10:51.246Z,101292.41
2022-10-29T05:13:18.371Z,101298.97
2022-10-29T05:15:53.794Z,101295.91
2022-10-29T05:18:21.213Z,101296.47
2022-10-29T05:20:51.238Z,101298.50
2022-10-29T05:23:18.316Z,101299.38
2022-10-29T05:25:49.242Z,101295.22
2022-10-29T05:28:19.675Z,101305.56
2022-10-29T05:30:48.641Z,101306.19
2022-10-29T05:33:25.523Z,101305.09
2022-10-29T05:35:53.219Z,101301.91
2022-10-29T05:38:20.646Z,101298.53
2022-10-29T05:40:47.919Z,101309.88
2022-10-29T05:43:17.037Z,101309.59
2022-10-29T05:45:45.777Z,101305.72
2022-10-29T05:48:13.915Z,101309.59
2022-10-29T05:50:41.192Z,101315.91
2022-10-29T05:53:15.065Z,101323.13
2022-10-29T05:55:42.637Z,101335.09
2022-10-29T05:58:13.273Z,101329.63
2022-10-29T06:00:46.489Z,101335.22
2022-10-29T06:03:19.129Z,101330.03
2022-10-29T06:05:50.982Z,101329.69
2022-10-29T06:08:19.442Z,101339.50
2022-10-29T06:10:46.733Z,101347.34
2022-10-29T06:13:18.831Z,101349.47
2022-10-29T06:15:47.879Z,101353.34
2022-10-29T06:18:16.175Z,101357.97
2022-10-29T06:20:43.803Z,101353.41
2022-10-29T06:23:11.280Z,101352.84
2022-10-29T06:25:41.590Z,101356.75
2022-10-29T06:28:15.465Z,101363.34
2022-10-29T06:30:50.501Z,101361.31
2022-10-29T06:33:19.320Z,101367.69
2022-10-29T06:35:47.451Z,101363.19
2022-10-29T06:38:17.533Z,101358.50
2022-10-29T06:40:55.625Z,101355.63
2022-10-29T06:43:22.757Z,101349.00
2022-10-29T06:45:50.590Z,101344.94
2022-10-29T06:48:22.364Z,101340.63
2022-10-29T06:50:51.370Z,101340.38
2022-10-29T06:53:19.533Z,101339.56
2022-10-29T06:55:46.795Z,101342.84
2022-10-29T06:58:17.745Z,101349.59
2022-10-29T07:00:46.096Z,101363.59
2022-10-29T07:03:19.951Z,101356.78
2022-10-29T07:05:48.565Z,101362.66
2022-10-29T07:08:15.856Z,101358.81
2022-10-29T07:10:43.081Z,101363.72
2022-10-29T07:13:10.966Z,101370.69
2022-10-29T07:15:38.268Z,101372.34
2022-10-29T07:18:13.317Z,101376.84
2022-10-29T07:20:44.754Z,101377.56
2022-10-29T07:23:15.921Z,101383.97
2022-10-29T07:25:43.420Z,101370.53
2022-10-29T07:28:20.980Z,101372.25
2022-10-29T07:30:51.144Z,101372.03
2022-10-29T07:33:18.943Z,101360.66
2022-10-29T07:35:48.708Z,101360.09
2022-10-29T07:38:17.989Z,101367.69
2022-10-29T07:40:50.239Z,101379.56
2022-10-29T07:43:18.568Z,101374.22
2022-10-29T07:45:49.994Z,101371.59
2022-10-29T07:48:19.679Z,101389.09
2022-10-29T07:50:47.545Z,101382.41
2022-10-29T07:53:15.069Z,101377.06
2022-10-29T07:55:42.118Z,101378.78
2022-10-29T07:58:12.598Z,101381.69
2022-10-29T08:00:41.762Z,101397.31
2022-10-29T08:03:11.853Z,101410.69
2022-10-29T08:05:42.701Z,101415.00
2022-10-29T08:08:10.652Z,101414.91
2022-10-29T08:10:37.834Z,101403.22
2022-10-29T08:13:06.761Z,101406.63
2022-10-29T08:15:35.146Z,101414.50
2022-10-29T08:18:04.872Z,101402.78
2022-10-29T08:20:35.356Z,101404.88
2022-10-29T08:23:02.567Z,101405.59
2022-10-29T08:25:29.760Z,101394.22
2022-10-29T08:28:05.460Z,101402.00
2022-10-29T08:30:33.271Z,101406.25
2022-10-29T08:33:04.732Z,101410.31
2022-10-29T08:35:33.018Z,101408.22
2022-10-29T08:38:00.459Z,101407.66
2022-10-29T08:41:16.658Z,101416.22
2022-10-29T08:44:17.439Z,101431.69
2022-10-29T08:46:55.897Z,101431.38
2022-10-29T08:49:35.754Z,101436.13
2022-10-29T08:52:32.085Z,101446.91
2022-10-29T08:55:25.731Z,101456.69
2022-10-29T08:57:58.360Z,101463.03
2022-10-29T09:00:37.720Z,101460.38
2022-10-29T09:03:12.927Z,101446.28
2022-10-29T09:05:54.912Z,101452.72
2022-10-29T09:08:54.767Z,101457.03
2022-10-29T09:12:09.720Z,101453.06
2022-10-29T09:14:37.827Z,101464.09
2022-10-29T09:17:58.689Z,101456.72
2022-10-29T09:20:56.428Z,101448.00
2022-10-29T09:23:50.054Z,101449.63
2022-10-29T09:26:58.539Z,101456.69
2022-10-29T09:30:00.787Z,101448.38
2022-10-29T09:32:40.167Z,101433.66
2022-10-29T09:35:15.212Z,101441.94
2022-10-29T09:37:52.721Z,101456.38
2022-10-29T09:40:42.795Z,101459.97
2022-10-29T09:43:37.225Z,101450.63
2022-10-29T09:46:22.119Z,101439.53
2022-10-29T09:49:34.892Z,101442.75
2022-10-29T09:52:33.280Z,101451.50
2022-10-29T09:55:03.247Z,101457.00
2022-10-29T09:57:34.750Z,101459.59
2022-10-29T10:00:22.353Z,101462.38
2022-10-29T10:03:17.807Z,101489.38
2022-10-29T10:06:11.743Z,101478.38
2022-10-29T10:09:06.176Z,101471.44
2022-10-29T10:11:50.041Z,101492.66
2022-10-29T10:14:23.796Z,101479.63
2022-10-29T10:17:01.902Z,101482.31
2022-10-29T10:20:25.883Z,101482.53
2022-10-29T10:22:53.166Z,101480.47
2022-10-29T10:25:38.071Z,101486.22
2022-10-29T10:28:24.006Z,101480.25
2022-10-29T10:31:14.510Z,101479.09
2022-10-29T10:33:51.939Z,101482.88
2022-10-29T10:36:26.523Z,101471.16
2022-10-29T10:39:00.676Z,101476.31
2022-10-29T10:41:35.469Z,101470.44
2022-10-29T10:44:05.275Z,101471.66
2022-10-29T10:46:38.557Z,101473.56
2022-10-29T10:49:17.131Z,101476.94
2022-10-29T10:51:53.525Z,101475.38
2022-10-29T10:54:44.969Z,101482.91
2022-10-29T10:57:12.012Z,101480.47
2022-10-29T11:00:12.956Z,101484.34
2022-10-29T11:03:01.759Z,101484.06
2022-10-29T11:05:35.937Z,101477.75
2022-10-29T11:08:16.345Z,101472.53
2022-10-29T11:10:55.757Z,101475.94
2022-10-29T11:13:33.962Z,101471.47
2022-10-29T11:16:41.717Z,101473.28
2022-10-29T11:19:49.151Z,101474.97
2022-10-29T11:22:43.845Z,101474.59
2022-10-29T11:25:23.791Z,101475.97
2022-10-29T11:28:23.568Z,101471.56
2022-10-29T11:30:59.887Z,101481.34
2022-10-29T11:33:57.633Z,101490.53
2022-10-29T11:36:30.417Z,101477.69
2022-10-29T11:39:16.129Z,101485.06
2022-10-29T11:42:01.438Z,101475.41
2022-10-29T11:44:39.530Z,101495.56
2022-10-29T11:47:54.499Z,101493.38
2022-10-29T11:50:36.351Z,101489.31
2022-10-29T11:53:24.488Z,101485.72
2022-10-29T11:56:32.089Z,101480.50
2022-10-29T11:59:27.134Z,101473.38
2022-10-29T12:02:39.846Z,101476.03
2022-10-29T12:05:59.434Z,101479.22
2022-10-29T12:08:38.090Z,101486.63
2022-10-29T12:11:42.990Z,101473.41
2022-10-29T12:15:20.198Z,101463.94
2022-10-29T12:17:56.449Z,101479.31
2022-10-29T12:21:06.506Z,101469.06
2022-10-29T12:23:57.589Z,101469.69
2022-10-29T12:26:45.183Z,101471.28
2022-10-29T12:29:47.881Z,101468.16
2022-10-29T12:32:47.249Z,101470.88
2022-10-29T12:35:51.838Z,101466.25
2022-10-29T12:38:50.675Z,101466.94
2022-10-29T12:41:43.716Z,101456.03
2022-10-29T12:44:24.122Z,101448.66
2022-10-29T12:46:54.085Z,101449.19
2022-10-29T12:49:40.202Z,101446.31
2022-10-29T12:52:12.929Z,101454.75
2022-10-29T12:54:42.123Z,101453.00
2022-10-29T12:57:15.110Z,101458.22
2022-10-29T12:59:43.971Z,101466.66
2022-10-29T13:02:38.273Z,101466.56
2022-10-29T13:05:11.043Z,101466.06
2022-10-29T13:07:45.123Z,101464.00
2022-10-29T13:10:29.625Z,101463.72
2022-10-29T13:12:59.841Z,101464.22
2022-10-29T13:15:38.852Z,101455.50
2022-10-29T13:18:32.205Z,101454.97
2022-10-29T13:20:59.408Z,101465.78
2022-10-29T13:23:40.904Z,101463.41
2022-10-29T13:26:08.941Z,101466.84
2022-10-29T13:28:35.893Z,101464.34
2022-10-29T13:31:09.119Z,101469.59
2022-10-29T13:33:36.100Z,101466.56
2022-10-29T13:36:16.743Z,101465.00
2022-10-29T13:39:06.850Z,101482.25
2022-10-29T13:41:46.305Z,101483.13
2022-10-29T13:44:29.375Z,101487.56
2022-10-29T13:47:15.041Z,101479.94
2022-10-29T13:49:46.060Z,101470.97
2022-10-29T13:52:20.466Z,101468.56
2022-10-29T13:55:00.317Z,101470.00
2022-10-29T13:58:17.021Z,101481.03
2022-10-29T14:00:46.463Z,101479.97
2022-10-29T14:03:35.433Z,101479.25
2022-10-29T14:06:31.505Z,101478.19
2022-10-29T14:09:24.585Z,101485.53
2022-10-29T14:12:04.719Z,101480.50
2022-10-29T14:14:48.706Z,101483.94
2022-10-29T14:17:19.248Z,101470.22
2022-10-29T14:19:49.529Z,101476.72
2022-10-29T14:22:36.523Z,101475.19
2022-10-29T14:25:36.952Z,101476.13
2022-10-29T14:28:17.623Z,101482.16
2022-10-29T14:30:59.386Z,101484.75
2022-10-29T14:33:31.805Z,101485.22
2022-10-29T14:36:50.283Z,101489.75
2022-10-29T14:39:32.864Z,101490.16
2022-10-29T14:42:31.118Z,101493.84
2022-10-29T14:45:03.044Z,101504.56
2022-10-29T14:47:36.499Z,101500.94
2022-10-29T14:50:21.457Z,101499.22
2022-10-29T14:52:53.708Z,101501.53
2022-10-29T14:55:35.335Z,101503.16
2022-10-29T14:58:20.147Z,101505.66
2022-10-29T15:00:56.333Z,101503.94
2022-10-29T15:03:26.988Z,101508.84
2022-10-29T15:06:16.554Z,101518.34
2022-10-29T15:08:53.850Z,101507.03
2022-10-29T15:11:34.568Z,101504.16
2022-10-29T15:14:03.292Z,101510.72
2022-10-29T15:16:32.011Z,101499.25
2022-10-29T15:19:00.442Z,101505.03
2022-10-29T15:21:33.257Z,101498.72
2022-10-29T15:24:06.574Z,101499.31
2022-10-29T15:26:45.657Z,101504.69
2022-10-29T15:29:13.246Z,101506.16
2022-10-29T15:31:53.585Z,101500.78
2022-10-29T15:34:37.246Z,101500.59
2022-10-29T15:37:33.714Z,101502.84
2022-10-29T15:40:12.651Z,101505.72
2022-10-29T15:42:41.104Z,101503.88
2022-10-29T15:45:09.179Z,101496.28
2022-10-29T15:47:40.414Z,101495.47
2022-10-29T15:50:12.941Z,101494.66
2022-10-29T15:52:48.753Z,101497.50
2022-10-29T15:55:27.046Z,101494.00
2022-10-29T15:58:04.858Z,101497.06
2022-10-29T16:00:33.240Z,101489.72
2022-10-29T16:03:13.757Z,101488.66
2022-10-29T16:05:47.036Z,101483.72
2022-10-29T16:08:17.730Z,101487.41
2022-10-29T16:10:46.731Z,101486.63
2022-10-29T16:13:13.816Z,101488.06
2022-10-29T16:15:43.336Z,101489.31
2022-10-29T16:18:11.503Z,101502.03
2022-10-29T16:20:38.587Z,101494.22
2022-10-29T16:23:05.670Z,101492.16
2022-10-29T16:25:33.814Z,101496.69
2022-10-29T16:28:03.590Z,101487.63
2022-10-29T16:30:33.838Z,101490.13
2022-10-29T16:33:02.203Z,101498.75
2022-10-29T16:35:30.529Z,101492.56
2022-10-29T16:37:58.140Z,101488.66
2022-10-29T16:40:28.036Z,101477.75
2022-10-29T16:42:55.802Z,101471.59
2022-10-29T16:45:31.272Z,101469.13
2022-10-29T16:48:01.317Z,101488.88
2022-10-29T16:50:33.800Z,101484.31
2022-10-29T16:53:10.273Z,101484.91
2022-10-29T16:55:41.292Z,101497.53
2022-10-29T16:58:16.567Z,101489.22
2022-10-29T17:00:44.597Z,101485.88
2022-10-29T17:03:16.710Z,101487.00
2022-10-29T17:05:46.244Z,101495.84
2022-10-29T17:08:13.756Z,101490.88
2022-10-29T17:10:41.660Z,101483.31
2022-10-29T17:13:11.323Z,101491.31
2022-10-29T17:15:42.195Z,101487.00
2022-10-29T17:18:12.093Z,101493.81
2022-10-29T17:20:41.794Z,101496.91
2022-10-29T17:23:08.954Z,101499.59
2022-10-29T17:25:36.150Z,101504.69
2022-10-29T17:28:03.770Z,101503.66
2022-10-29T17:30:32.898Z,101498.97
2022-10-29T17:33:00.543Z,101509.66
2022-10-29T17:35:28.319Z,101508.41
2022-10-29T17:37:55.405Z,101515.59
2022-10-29T17:40:24.125Z,101516.44
2022-10-29T17:42:51.435Z,101522.59
2022-10-29T17:45:20.523Z,101521.78
2022-10-29T17:47:47.817Z,101523.41
2022-10-29T17:50:15.165Z,101525.44
2022-10-29T17:52:44.778Z,101530.38
2022-10-29T17:55:11.837Z,101533.47
2022-10-29T17:57:38.922Z,101530.38
2022-10-29T18:00:11.612Z,101534.69
2022-10-29T18:02:38.738Z,101536.53
2022-10-29T18:05:06.157Z,101543.91
2022-10-29T18:07:33.700Z,101546.63
2022-10-29T18:10:00.728Z,101540.06
2022-10-29T18:12:27.856Z,101533.63
2022-10-29T18:14:54.919Z,101542.41
2022-10-29T18:17:21.961Z,101537.72
2022-10-29T18:19:49.026Z,101533.78
2022-10-29T18:22:16.300Z,101538.81
2022-10-29T18:24:43.401Z,101538.03
2022-10-29T18:27:10.496Z,101546.03
2022-10-29T18:29:37.578Z,101556.84
2022-10-29T18:32:05.172Z,101542.94
2022-10-29T18:34:34.186Z,101540.94
2022-10-29T18:37:01.309Z,101540.88
2022-10-29T18:39:28.387Z,101532.91
2022-10-29T18:41:55.514Z,101535.94
2022-10-29T18:44:22.581Z,101534.72
2022-10-29T18:46:52.087Z,101524.25
2022-10-29T18:49:19.625Z,101526.31
2022-10-29T18:51:46.718Z,101515.22
2022-10-29T18:54:14.952Z,101506.56
2022-10-29T18:56:42.543Z,101512.34
2022-10-29T18:59:12.763Z,101509.34
2022-10-29T19:01:40.465Z,101521.31
2022-10-29T19:04:13.073Z,101520.03
2022-10-29T19:06:40.579Z,101521.72
2022-10-29T19:09:09.786Z,101520.31
2022-10-29T19:11:39.591Z,101518.66
2022-10-29T19:14:11.689Z,101515.84
2022-10-29T19:16:38.826Z,101514.97
2022-10-29T19:19:10.702Z,101509.72
2022-10-29T19:21:39.413Z,101502.53
2022-10-29T19:24:08.069Z,101500.84
2022-10-29T19:26:36.210Z,101506.81
2022-10-29T19:29:05.893Z,101509.50
2022-10-29T19:31:35.673Z,101513.38
2022-10-29T19:34:06.248Z,101514.44
2022-10-29T19:36:35.457Z,101512.16
2022-10-29T19:39:05.227Z,101516.25
2022-10-29T19:41:32.851Z,101515.88
2022-10-29T19:44:03.911Z,101519.00
2022-10-29T19:46:31.254Z,101524.09
2022-10-29T19:48:59.180Z,101517.72
2022-10-29T19:51:26.971Z,101517.88
2022-10-29T19:53:54.511Z,101515.50
2022-10-29T19:56:22.188Z,101506.50
2022-10-29T19:58:49.711Z,101511.84
2022-10-29T20:01:18.372Z,101511.56
2022-10-29T20:03:46.718Z,101513.81
2022-10-29T20:06:15.151Z,101507.81
2022-10-29T20:08:44.798Z,101512.94
2022-10-29T20:11:12.124Z,101512.47
2022-10-29T20:13:41.781Z,101517.00
2022-10-29T20:16:17.189Z,101517.00
2022-10-29T20:18:45.242Z,101510.69
2022-10-29T20:21:13.839Z,101509.94
2022-10-29T20:23:44.854Z,101511.03
2022-10-29T20:26:12.093Z,101508.22
2022-10-29T20:28:39.648Z,101513.31
2022-10-29T20:31:31.053Z,101513.94
2022-10-29T20:34:00.831Z,101509.22
2022-10-29T20:36:32.181Z,101522.41
2022-10-29T20:39:00.116Z,101516.25
2022-10-29T20:41:28.377Z,101520.41
2022-10-29T20:44:01.703Z,101520.38
2022-10-29T20:46:29.563Z,101518.72
2022-10-29T20:48:57.186Z,101522.44
2022-10-29T20:51:25.211Z,101524.50
2022-10-29T20:53:53.616Z,101523.31
2022-10-29T20:56:23.736Z,101530.25
2022-10-29T20:58:51.300Z,101534.31
2022-10-29T21:01:21.432Z,101536.78
2022-10-29T21:03:50.415Z,101537.81
2022-10-29T21:06:19.162Z,101538.25
2022-10-29T21:08:51.724Z,101530.59
2022-10-29T21:11:21.447Z,101528.38
2022-10-29T21:13:51.796Z,101520.75
2022-10-29T21:16:23.109Z,101508.63
2022-10-29T21:19:05.083Z,101512.50
2022-10-29T21:21:43.405Z,101519.03
2022-10-29T21:24:26.248Z,101519.91
2022-10-29T21:26:57.479Z,101516.94
2022-10-29T21:29:24.763Z,101515.84
2022-10-29T21:31:51.836Z,101505.13
2022-10-29T21:34:21.398Z,101492.78
2022-10-29T21:36:48.494Z,101500.56
2022-10-29T21:39:15.623Z,101500.56
2022-10-29T21:41:42.876Z,101507.94
2022-10-29T21:44:10.066Z,101499.72
2022-10-29T21:46:39.814Z,101494.72
2022-10-29T21:49:07.081Z,101495.84
2022-10-29T21:51:34.317Z,101485.19
2022-10-29T21:54:01.561Z,101485.34
2022-10-29T21:56:28.760Z,101479.91
2022-10-29T21:58:55.976Z,101471.03
2022-10-29T22:01:23.300Z,101478.00
2022-10-29T22:03:50.648Z,101490.31
2022-10-29T22:06:23.612Z,101489.47
2022-10-29T22:08:59.488Z,101484.97
2022-10-29T22:11:28.761Z,101491.44
2022-10-29T22:13:55.889Z,101500.47
2022-10-29T22:16:23.415Z,101490.97
2022-10-29T22:18:53.931Z,101498.16
2022-10-29T22:21:24.586Z,101480.97
2022-10-29T22:23:57.305Z,101477.63
2022-10-29T22:26:29.011Z,101474.41
2022-10-29T22:28:56.752Z,101484.13
2022-10-29T22:31:24.731Z,101488.63
2022-10-29T22:33:52.526Z,101493.97
2022-10-29T22:36:25.939Z,101485.88
2022-10-29T22:38:58.891Z,101488.94
2022-10-29T22:41:29.810Z,101486.91
2022-10-29T22:44:00.886Z,101487.47
2022-10-29T22:46:30.132Z,101488.50
2022-10-29T22:48:57.848Z,101495.00
2022-10-29T22:51:30.187Z,101496.41
2022-10-29T22:53:57.996Z,101503.38
2022-10-29T22:56:29.256Z,101500.16
2022-10-29T22:58:56.588Z,101493.13
2022-10-29T23:01:40.314Z,101504.44
2022-10-29T23:04:22.680Z,101511.41
2022-10-29T23:06:50.013Z,101510.81
2022-10-29T23:09:17.116Z,101511.88
2022-10-29T23:11:46.948Z,101501.34
2022-10-29T23:14:16.456Z,101509.13
2022-10-29T23:16:43.766Z,101504.09
2022-10-29T23:19:12.314Z,101506.75
2022-10-29T23:21:39.665Z,101509.44
2022-10-29T23:24:07.391Z,101505.53
2022-10-29T23:26:34.527Z,101509.44
2022-10-29T23:29:01.731Z,101511.53
2022-10-29T23:31:29.371Z,101513.38
2022-10-29T23:33:59.746Z,101510.28
2022-10-29T23:36:27.865Z,101504.72
2022-10-29T23:39:02.542Z,101507.53
2022-10-29T23:41:33.747Z,101503.88
2022-10-29T23:44:00.927Z,101504.72
2022-10-29T23:46:28.038Z,101497.28
2022-10-29T23:48:55.286Z,101500.13
2022-10-29T23:51:22.531Z,101472.41
2022-10-29T23:53:53.156Z,101473.88
2022-10-29T23:56:26.052Z,101483.84
2022-10-29T23:58:53.170Z,101491.06
